sensor_id;sensor_type;location;lat;lon;timestamp;temperature;humidity
21807;DHT22;11065;50.786;7.840;2024-02-26T00:01:53;10.60;45.00
21807;DHT22;11065;50.786;7.840;2024-02-26T00:04:21;10.50;45.00
21807;DHT22;11065;50.786;7.840;2024-02-26T00:06:49;10.50;44.90
21807;DHT22;11065;50.786;7.840;2024-02-26T00:09:21;10.50;44.90
21807;DHT22;11065;50.786;7.840;2024-02-26T00:11:49;10.50;45.00
21807;DHT22;11065;50.786;7.840;2024-02-26T00:14:17;10.50;45.00
21807;DHT22;11065;50.786;7.840;2024-02-26T00:16:45;10.50;45.00
21807;DHT22;11065;50.786;7.840;2024-02-26T00:19:14;10.50;45.10
21807;DHT22;11065;50.786;7.840;2024-02-26T00:21:42;10.50;45.10
21807;DHT22;11065;50.786;7.840;2024-02-26T00:24:10;10.50;45.10
21807;DHT22;11065;50.786;7.840;2024-02-26T00:26:38;10.50;45.10
21807;DHT22;11065;50.786;7.840;2024-02-26T00:29:06;10.50;45.10
21807;DHT22;11065;50.786;7.840;2024-02-26T00:31:34;10.50;45.00
21807;DHT22;11065;50.786;7.840;2024-02-26T00:34:04;10.50;45.00
21807;DHT22;11065;50.786;7.840;2024-02-26T00:36:33;10.50;45.00
21807;DHT22;11065;50.786;7.840;2024-02-26T00:39:01;10.50;45.10
21807;DHT22;11065;50.786;7.840;2024-02-26T00:41:30;10.50;45.10
21807;DHT22;11065;50.786;7.840;2024-02-26T00:43:58;10.50;45.60
21807;DHT22;11065;50.786;7.840;2024-02-26T00:46:27;10.50;45.10
21807;DHT22;11065;50.786;7.840;2024-02-26T00:48:55;10.50;45.10
21807;DHT22;11065;50.786;7.840;2024-02-26T00:51:23;10.50;45.10
21807;DHT22;11065;50.786;7.840;2024-02-26T00:53:54;10.50;45.10
21807;DHT22;11065;50.786;7.840;2024-02-26T00:56:22;10.50;45.10
21807;DHT22;11065;50.786;7.840;2024-02-26T00:58:50;10.50;45.10
21807;DHT22;11065;50.786;7.840;2024-02-26T01:01:18;10.50;45.10
21807;DHT22;11065;50.786;7.840;2024-02-26T01:03:46;10.50;45.10
21807;DHT22;11065;50.786;7.840;2024-02-26T01:06:14;10.50;45.10
21807;DHT22;11065;50.786;7.840;2024-02-26T01:08:43;10.50;45.10
21807;DHT22;11065;50.786;7.840;2024-02-26T01:11:12;10.50;45.10
21807;DHT22;11065;50.786;7.840;2024-02-26T01:13:40;10.50;45.10
21807;DHT22;11065;50.786;7.840;2024-02-26T01:16:08;10.50;45.10
21807;DHT22;11065;50.786;7.840;2024-02-26T01:18:37;10.50;45.10
21807;DHT22;11065;50.786;7.840;2024-02-26T01:21:05;10.50;45.10
21807;DHT22;11065;50.786;7.840;2024-02-26T01:23:35;10.50;45.10
21807;DHT22;11065;50.786;7.840;2024-02-26T01:26:04;10.50;45.20
21807;DHT22;11065;50.786;7.840;2024-02-26T01:28:33;10.50;45.20
21807;DHT22;11065;50.786;7.840;2024-02-26T01:31:01;10.50;45.20
21807;DHT22;11065;50.786;7.840;2024-02-26T01:33:31;10.50;45.30
21807;DHT22;11065;50.786;7.840;2024-02-26T01:36:00;10.50;45.40
21807;DHT22;11065;50.786;7.840;2024-02-26T01:38:28;10.50;45.50
21807;DHT22;11065;50.786;7.840;2024-02-26T01:40:56;10.40;45.50
21807;DHT22;11065;50.786;7.840;2024-02-26T01:43:24;10.50;45.70
21807;DHT22;11065;50.786;7.840;2024-02-26T01:45:53;10.50;45.70
21807;DHT22;11065;50.786;7.840;2024-02-26T01:48:21;10.50;45.80
21807;DHT22;11065;50.786;7.840;2024-02-26T01:50:50;10.50;45.90
21807;DHT22;11065;50.786;7.840;2024-02-26T01:53:19;10.50;45.90
21807;DHT22;11065;50.786;7.840;2024-02-26T01:55:47;10.40;46.00
21807;DHT22;11065;50.786;7.840;2024-02-26T01:58:15;10.40;46.10
21807;DHT22;11065;50.786;7.840;2024-02-26T02:00:43;10.40;46.20
21807;DHT22;11065;50.786;7.840;2024-02-26T02:03:13;10.40;46.20
21807;DHT22;11065;50.786;7.840;2024-02-26T02:05:42;10.40;46.40
21807;DHT22;11065;50.786;7.840;2024-02-26T02:08:10;10.40;46.50
21807;DHT22;11065;50.786;7.840;2024-02-26T02:10:39;10.40;46.30
21807;DHT22;11065;50.786;7.840;2024-02-26T02:13:07;10.40;46.30
21807;DHT22;11065;50.786;7.840;2024-02-26T02:15:35;10.40;46.30
21807;DHT22;11065;50.786;7.840;2024-02-26T02:18:03;10.40;46.20
21807;DHT22;11065;50.786;7.840;2024-02-26T02:20:33;10.30;46.20
21807;DHT22;11065;50.786;7.840;2024-02-26T02:23:02;10.40;46.30
21807;DHT22;11065;50.786;7.840;2024-02-26T02:25:30;10.30;46.20
21807;DHT22;11065;50.786;7.840;2024-02-26T02:27:58;10.30;46.20
21807;DHT22;11065;50.786;7.840;2024-02-26T02:30:28;10.30;46.20
21807;DHT22;11065;50.786;7.840;2024-02-26T02:32:57;10.30;46.20
21807;DHT22;11065;50.786;7.840;2024-02-26T02:35:26;10.30;46.10
21807;DHT22;11065;50.786;7.840;2024-02-26T02:37:57;10.40;46.20
21807;DHT22;11065;50.786;7.840;2024-02-26T02:40:25;10.30;46.20
21807;DHT22;11065;50.786;7.840;2024-02-26T02:42:53;10.30;46.10
21807;DHT22;11065;50.786;7.840;2024-02-26T02:45:20;10.30;46.10
21807;DHT22;11065;50.786;7.840;2024-02-26T02:47:48;10.30;46.20
21807;DHT22;11065;50.786;7.840;2024-02-26T02:50:17;10.30;46.20
21807;DHT22;11065;50.786;7.840;2024-02-26T02:52:44;10.30;46.30
21807;DHT22;11065;50.786;7.840;2024-02-26T02:55:16;10.30;46.20
21807;DHT22;11065;50.786;7.840;2024-02-26T02:57:44;10.30;46.20
21807;DHT22;11065;50.786;7.840;2024-02-26T03:00:12;10.30;46.20
21807;DHT22;11065;50.786;7.840;2024-02-26T03:02:41;10.30;46.30
21807;DHT22;11065;50.786;7.840;2024-02-26T03:05:09;10.30;46.40
21807;DHT22;11065;50.786;7.840;2024-02-26T03:07:37;10.30;46.40
21807;DHT22;11065;50.786;7.840;2024-02-26T03:10:06;10.30;46.40
21807;DHT22;11065;50.786;7.840;2024-02-26T03:12:36;10.20;46.40
21807;DHT22;11065;50.786;7.840;2024-02-26T03:15:04;10.20;46.40
21807;DHT22;11065;50.786;7.840;2024-02-26T03:17:33;10.20;46.40
21807;DHT22;11065;50.786;7.840;2024-02-26T03:20:01;10.20;46.40
21807;DHT22;11065;50.786;7.840;2024-02-26T03:22:30;10.20;46.50
21807;DHT22;11065;50.786;7.840;2024-02-26T03:24:58;10.20;46.50
21807;DHT22;11065;50.786;7.840;2024-02-26T03:27:26;10.20;46.50
21807;DHT22;11065;50.786;7.840;2024-02-26T03:29:55;10.30;46.60
21807;DHT22;11065;50.786;7.840;2024-02-26T03:32:23;10.20;46.60
21807;DHT22;11065;50.786;7.840;2024-02-26T03:34:51;10.20;46.60
21807;DHT22;11065;50.786;7.840;2024-02-26T03:37:21;10.20;46.60
21807;DHT22;11065;50.786;7.840;2024-02-26T03:39:49;10.20;46.60
21807;DHT22;11065;50.786;7.840;2024-02-26T03:42:17;10.20;46.60
21807;DHT22;11065;50.786;7.840;2024-02-26T03:44:45;10.20;46.60
21807;DHT22;11065;50.786;7.840;2024-02-26T03:47:15;10.10;46.60
21807;DHT22;11065;50.786;7.840;2024-02-26T03:49:43;10.10;46.60
21807;DHT22;11065;50.786;7.840;2024-02-26T03:52:11;10.20;46.60
21807;DHT22;11065;50.786;7.840;2024-02-26T03:54:39;10.10;46.60
21807;DHT22;11065;50.786;7.840;2024-02-26T03:57:07;10.10;46.70
21807;DHT22;11065;50.786;7.840;2024-02-26T03:59:35;10.10;46.60
21807;DHT22;11065;50.786;7.840;2024-02-26T04:02:03;10.10;46.70
21807;DHT22;11065;50.786;7.840;2024-02-26T04:04:35;10.10;46.80
21807;DHT22;11065;50.786;7.840;2024-02-26T04:07:03;10.10;46.80
21807;DHT22;11065;50.786;7.840;2024-02-26T04:09:31;10.10;46.80
21807;DHT22;11065;50.786;7.840;2024-02-26T04:11:59;10.10;46.90
21807;DHT22;11065;50.786;7.840;2024-02-26T04:14:27;10.10;46.90
21807;DHT22;11065;50.786;7.840;2024-02-26T04:16:55;10.10;47.00
21807;DHT22;11065;50.786;7.840;2024-02-26T04:19:23;10.10;47.00
21807;DHT22;11065;50.786;7.840;2024-02-26T04:21:53;10.10;47.00
21807;DHT22;11065;50.786;7.840;2024-02-26T04:24:22;10.10;47.00
21807;DHT22;11065;50.786;7.840;2024-02-26T04:26:50;10.10;47.10
21807;DHT22;11065;50.786;7.840;2024-02-26T04:29:18;10.10;47.20
21807;DHT22;11065;50.786;7.840;2024-02-26T04:31:45;10.10;47.20
21807;DHT22;11065;50.786;7.840;2024-02-26T04:34:14;10.10;47.30
21807;DHT22;11065;50.786;7.840;2024-02-26T04:36:42;10.00;47.30
21807;DHT22;11065;50.786;7.840;2024-02-26T04:39:12;10.00;47.40
21807;DHT22;11065;50.786;7.840;2024-02-26T04:41:40;10.00;47.50
21807;DHT22;11065;50.786;7.840;2024-02-26T04:44:08;10.00;47.60
21807;DHT22;11065;50.786;7.840;2024-02-26T04:46:35;10.00;47.60
21807;DHT22;11065;50.786;7.840;2024-02-26T04:49:03;10.00;47.60
21807;DHT22;11065;50.786;7.840;2024-02-26T04:51:31;9.90;47.60
21807;DHT22;11065;50.786;7.840;2024-02-26T04:53:59;9.90;47.70
21807;DHT22;11065;50.786;7.840;2024-02-26T04:56:29;9.90;47.90
21807;DHT22;11065;50.786;7.840;2024-02-26T04:58:57;9.90;48.00
21807;DHT22;11065;50.786;7.840;2024-02-26T05:01:24;9.90;48.00
21807;DHT22;11065;50.786;7.840;2024-02-26T05:03:53;9.90;48.10
21807;DHT22;11065;50.786;7.840;2024-02-26T05:06:21;9.80;48.20
21807;DHT22;11065;50.786;7.840;2024-02-26T05:08:49;9.80;48.30
21807;DHT22;11065;50.786;7.840;2024-02-26T05:11:17;9.80;48.30
21807;DHT22;11065;50.786;7.840;2024-02-26T05:13:47;9.80;48.30
21807;DHT22;11065;50.786;7.840;2024-02-26T05:16:15;9.90;48.40
21807;DHT22;11065;50.786;7.840;2024-02-26T05:18:43;9.70;48.40
21807;DHT22;11065;50.786;7.840;2024-02-26T05:21:11;9.70;48.50
21807;DHT22;11065;50.786;7.840;2024-02-26T05:23:40;9.80;48.70
21807;DHT22;11065;50.786;7.840;2024-02-26T05:26:09;9.70;48.70
21807;DHT22;11065;50.786;7.840;2024-02-26T05:28:37;9.70;48.80
21807;DHT22;11065;50.786;7.840;2024-02-26T05:31:07;9.70;48.90
21807;DHT22;11065;50.786;7.840;2024-02-26T05:33:35;9.70;49.00
21807;DHT22;11065;50.786;7.840;2024-02-26T05:36:03;9.70;49.00
21807;DHT22;11065;50.786;7.840;2024-02-26T05:38:32;9.70;49.00
21807;DHT22;11065;50.786;7.840;2024-02-26T05:41:00;9.70;49.10
21807;DHT22;11065;50.786;7.840;2024-02-26T05:43:28;9.70;49.20
21807;DHT22;11065;50.786;7.840;2024-02-26T05:45:56;9.60;49.20
21807;DHT22;11065;50.786;7.840;2024-02-26T05:48:25;9.60;49.30
21807;DHT22;11065;50.786;7.840;2024-02-26T05:50:53;9.60;49.30
21807;DHT22;11065;50.786;7.840;2024-02-26T05:53:22;9.70;49.30
21807;DHT22;11065;50.786;7.840;2024-02-26T05:55:50;9.80;49.40
21807;DHT22;11065;50.786;7.840;2024-02-26T05:58:18;9.70;49.40
21807;DHT22;11065;50.786;7.840;2024-02-26T06:00:46;9.70;49.40
21807;DHT22;11065;50.786;7.840;2024-02-26T06:03:14;9.70;49.40
21807;DHT22;11065;50.786;7.840;2024-02-26T06:05:43;9.70;49.40
21807;DHT22;11065;50.786;7.840;2024-02-26T06:08:11;9.70;49.50
21807;DHT22;11065;50.786;7.840;2024-02-26T06:10:40;9.70;49.40
21807;DHT22;11065;50.786;7.840;2024-02-26T06:13:08;9.70;49.40
21807;DHT22;11065;50.786;7.840;2024-02-26T06:15:36;9.70;49.50
21807;DHT22;11065;50.786;7.840;2024-02-26T06:18:04;9.70;49.50
21807;DHT22;11065;50.786;7.840;2024-02-26T06:20:32;9.70;49.60
21807;DHT22;11065;50.786;7.840;2024-02-26T06:23:02;9.70;49.60
21807;DHT22;11065;50.786;7.840;2024-02-26T06:25:30;9.70;49.70
21807;DHT22;11065;50.786;7.840;2024-02-26T06:27:58;9.70;49.60
21807;DHT22;11065;50.786;7.840;2024-02-26T06:30:26;9.70;49.60
21807;DHT22;11065;50.786;7.840;2024-02-26T06:32:54;9.70;49.60
21807;DHT22;11065;50.786;7.840;2024-02-26T06:35:22;9.70;49.60
21807;DHT22;11065;50.786;7.840;2024-02-26T06:37:50;9.70;49.60
21807;DHT22;11065;50.786;7.840;2024-02-26T06:40:20;9.70;49.60
21807;DHT22;11065;50.786;7.840;2024-02-26T06:42:48;9.70;49.70
21807;DHT22;11065;50.786;7.840;2024-02-26T06:45:17;9.70;49.70
21807;DHT22;11065;50.786;7.840;2024-02-26T06:47:45;9.70;49.70
21807;DHT22;11065;50.786;7.840;2024-02-26T06:50:13;9.70;49.70
21807;DHT22;11065;50.786;7.840;2024-02-26T06:52:42;9.70;49.80
21807;DHT22;11065;50.786;7.840;2024-02-26T06:55:10;9.70;49.90
21807;DHT22;11065;50.786;7.840;2024-02-26T06:57:40;9.70;49.80
21807;DHT22;11065;50.786;7.840;2024-02-26T07:00:09;9.70;49.80
21807;DHT22;11065;50.786;7.840;2024-02-26T07:02:41;9.70;49.80
21807;DHT22;11065;50.786;7.840;2024-02-26T07:05:09;9.70;49.80
21807;DHT22;11065;50.786;7.840;2024-02-26T07:07:37;9.70;49.90
21807;DHT22;11065;50.786;7.840;2024-02-26T07:10:06;9.70;49.90
21807;DHT22;11065;50.786;7.840;2024-02-26T07:12:34;9.70;50.00
21807;DHT22;11065;50.786;7.840;2024-02-26T07:15:04;9.70;50.00
21807;DHT22;11065;50.786;7.840;2024-02-26T07:17:34;9.70;50.00
21807;DHT22;11065;50.786;7.840;2024-02-26T07:20:03;9.70;50.00
21807;DHT22;11065;50.786;7.840;2024-02-26T07:22:36;9.70;50.10
21807;DHT22;11065;50.786;7.840;2024-02-26T07:25:04;9.80;50.20
21807;DHT22;11065;50.786;7.840;2024-02-26T07:27:34;9.70;50.10
21807;DHT22;11065;50.786;7.840;2024-02-26T07:30:05;9.70;50.10
21807;DHT22;11065;50.786;7.840;2024-02-26T07:32:33;9.70;50.20
21807;DHT22;11065;50.786;7.840;2024-02-26T07:35:01;9.80;50.20
21807;DHT22;11065;50.786;7.840;2024-02-26T07:37:29;9.80;50.30
21807;DHT22;11065;50.786;7.840;2024-02-26T07:39:57;9.80;50.30
21807;DHT22;11065;50.786;7.840;2024-02-26T07:42:25;9.80;50.40
21807;DHT22;11065;50.786;7.840;2024-02-26T07:44:53;9.80;50.40
21807;DHT22;11065;50.786;7.840;2024-02-26T07:47:23;9.80;50.40
21807;DHT22;11065;50.786;7.840;2024-02-26T07:49:51;9.80;50.40
21807;DHT22;11065;50.786;7.840;2024-02-26T07:52:19;9.80;50.40
21807;DHT22;11065;50.786;7.840;2024-02-26T07:54:48;9.80;50.40
21807;DHT22;11065;50.786;7.840;2024-02-26T07:57:15;9.90;50.40
21807;DHT22;11065;50.786;7.840;2024-02-26T07:59:44;9.90;50.50
21807;DHT22;11065;50.786;7.840;2024-02-26T08:02:16;9.90;50.50
21807;DHT22;11065;50.786;7.840;2024-02-26T08:04:46;9.90;50.50
21807;DHT22;11065;50.786;7.840;2024-02-26T08:07:14;9.90;50.50
21807;DHT22;11065;50.786;7.840;2024-02-26T08:09:43;9.90;50.50
21807;DHT22;11065;50.786;7.840;2024-02-26T08:12:12;9.90;50.50
21807;DHT22;11065;50.786;7.840;2024-02-26T08:14:40;10.00;50.60
21807;DHT22;11065;50.786;7.840;2024-02-26T08:17:09;9.90;50.60
21807;DHT22;11065;50.786;7.840;2024-02-26T08:19:37;10.00;50.70
21807;DHT22;11065;50.786;7.840;2024-02-26T08:22:06;10.00;50.60
21807;DHT22;11065;50.786;7.840;2024-02-26T08:24:34;10.00;50.70
21807;DHT22;11065;50.786;7.840;2024-02-26T08:27:03;10.00;50.60
21807;DHT22;11065;50.786;7.840;2024-02-26T08:29:30;10.00;50.70
21807;DHT22;11065;50.786;7.840;2024-02-26T08:31:59;10.10;50.80
21807;DHT22;11065;50.786;7.840;2024-02-26T08:34:27;10.10;50.80
21807;DHT22;11065;50.786;7.840;2024-02-26T08:36:55;10.10;50.80
21807;DHT22;11065;50.786;7.840;2024-02-26T08:39:24;10.10;50.80
21807;DHT22;11065;50.786;7.840;2024-02-26T08:41:53;10.10;50.80
21807;DHT22;11065;50.786;7.840;2024-02-26T08:44:21;10.10;50.70
21807;DHT22;11065;50.786;7.840;2024-02-26T08:46:49;10.10;50.70
21807;DHT22;11065;50.786;7.840;2024-02-26T08:49:17;10.10;50.80
21807;DHT22;11065;50.786;7.840;2024-02-26T08:51:45;10.10;50.80
21807;DHT22;11065;50.786;7.840;2024-02-26T08:54:13;10.10;50.80
21807;DHT22;11065;50.786;7.840;2024-02-26T08:56:42;10.10;50.80
21807;DHT22;11065;50.786;7.840;2024-02-26T08:59:10;10.10;50.80
21807;DHT22;11065;50.786;7.840;2024-02-26T09:01:38;10.10;50.80
21807;DHT22;11065;50.786;7.840;2024-02-26T09:04:06;10.20;50.80
21807;DHT22;11065;50.786;7.840;2024-02-26T09:06:34;10.20;50.90
21807;DHT22;11065;50.786;7.840;2024-02-26T09:09:02;10.20;50.90
21807;DHT22;11065;50.786;7.840;2024-02-26T09:11:31;10.20;51.00
21807;DHT22;11065;50.786;7.840;2024-02-26T09:14:00;10.20;50.90
21807;DHT22;11065;50.786;7.840;2024-02-26T09:16:28;10.20;51.00
21807;DHT22;11065;50.786;7.840;2024-02-26T09:18:56;10.20;50.90
21807;DHT22;11065;50.786;7.840;2024-02-26T09:21:24;10.20;51.00
21807;DHT22;11065;50.786;7.840;2024-02-26T09:23:53;10.30;51.00
21807;DHT22;11065;50.786;7.840;2024-02-26T09:26:21;10.30;50.90
21807;DHT22;11065;50.786;7.840;2024-02-26T09:28:49;10.30;50.90
21807;DHT22;11065;50.786;7.840;2024-02-26T09:31:19;10.30;51.00
21807;DHT22;11065;50.786;7.840;2024-02-26T09:33:47;10.30;51.00
21807;DHT22;11065;50.786;7.840;2024-02-26T09:36:15;10.40;51.10
21807;DHT22;11065;50.786;7.840;2024-02-26T09:38:43;10.40;51.10
21807;DHT22;11065;50.786;7.840;2024-02-26T09:41:27;10.40;51.20
21807;DHT22;11065;50.786;7.840;2024-02-26T09:43:56;10.40;51.10
21807;DHT22;11065;50.786;7.840;2024-02-26T09:46:27;10.40;51.20
21807;DHT22;11065;50.786;7.840;2024-02-26T09:48:56;10.50;51.40
21807;DHT22;11065;50.786;7.840;2024-02-26T09:51:24;10.50;51.40
21807;DHT22;11065;50.786;7.840;2024-02-26T09:53:53;10.50;51.30
21807;DHT22;11065;50.786;7.840;2024-02-26T09:56:22;10.60;51.40
21807;DHT22;11065;50.786;7.840;2024-02-26T09:58:52;10.60;51.50
21807;DHT22;11065;50.786;7.840;2024-02-26T10:01:21;10.70;51.50
21807;DHT22;11065;50.786;7.840;2024-02-26T10:03:56;10.70;51.30
21807;DHT22;11065;50.786;7.840;2024-02-26T10:06:26;10.70;51.40
21807;DHT22;11065;50.786;7.840;2024-02-26T10:08:55;10.80;51.40
21807;DHT22;11065;50.786;7.840;2024-02-26T10:11:25;10.80;51.40
21807;DHT22;11065;50.786;7.840;2024-02-26T10:13:54;10.90;51.50
21807;DHT22;11065;50.786;7.840;2024-02-26T10:16:24;10.90;51.40
21807;DHT22;11065;50.786;7.840;2024-02-26T10:18:53;10.90;51.40
21807;DHT22;11065;50.786;7.840;2024-02-26T10:21:26;11.00;51.40
21807;DHT22;11065;50.786;7.840;2024-02-26T10:23:54;11.10;51.50
21807;DHT22;11065;50.786;7.840;2024-02-26T10:26:22;11.10;51.40
21807;DHT22;11065;50.786;7.840;2024-02-26T10:28:50;11.20;51.40
21807;DHT22;11065;50.786;7.840;2024-02-26T10:31:21;11.20;51.30
21807;DHT22;11065;50.786;7.840;2024-02-26T10:33:49;11.20;51.20
21807;DHT22;11065;50.786;7.840;2024-02-26T10:36:20;11.30;51.30
21807;DHT22;11065;50.786;7.840;2024-02-26T10:38:48;11.30;51.30
21807;DHT22;11065;50.786;7.840;2024-02-26T10:41:18;11.30;51.30
21807;DHT22;11065;50.786;7.840;2024-02-26T10:43:47;11.40;51.40
21807;DHT22;11065;50.786;7.840;2024-02-26T10:46:15;11.40;51.30
21807;DHT22;11065;50.786;7.840;2024-02-26T10:48:49;11.40;51.30
21807;DHT22;11065;50.786;7.840;2024-02-26T10:51:21;11.50;51.30
21807;DHT22;11065;50.786;7.840;2024-02-26T10:53:51;11.50;51.20
21807;DHT22;11065;50.786;7.840;2024-02-26T10:56:28;11.50;51.10
21807;DHT22;11065;50.786;7.840;2024-02-26T10:58:58;11.50;51.00
21807;DHT22;11065;50.786;7.840;2024-02-26T11:01:27;11.60;51.00
21807;DHT22;11065;50.786;7.840;2024-02-26T11:03:56;11.60;51.00
21807;DHT22;11065;50.786;7.840;2024-02-26T11:06:27;11.60;51.00
21807;DHT22;11065;50.786;7.840;2024-02-26T11:08:56;11.60;51.00
21807;DHT22;11065;50.786;7.840;2024-02-26T11:11:26;11.60;51.10
21807;DHT22;11065;50.786;7.840;2024-02-26T11:13:55;11.70;51.10
21807;DHT22;11065;50.786;7.840;2024-02-26T11:16:23;11.70;51.00
21807;DHT22;11065;50.786;7.840;2024-02-26T11:18:53;11.70;51.10
21807;DHT22;11065;50.786;7.840;2024-02-26T11:21:22;11.70;51.10
21807;DHT22;11065;50.786;7.840;2024-02-26T11:23:58;11.70;51.00
21807;DHT22;11065;50.786;7.840;2024-02-26T11:26:26;11.70;50.90
21807;DHT22;11065;50.786;7.840;2024-02-26T11:28:55;11.80;51.10
21807;DHT22;11065;50.786;7.840;2024-02-26T11:31:24;11.90;51.20
21807;DHT22;11065;50.786;7.840;2024-02-26T11:33:54;11.90;51.20
21807;DHT22;11065;50.786;7.840;2024-02-26T11:36:24;11.90;51.20
21807;DHT22;11065;50.786;7.840;2024-02-26T11:38:52;11.90;51.30
21807;DHT22;11065;50.786;7.840;2024-02-26T11:41:22;12.00;51.40
21807;DHT22;11065;50.786;7.840;2024-02-26T11:43:51;12.00;51.40
21807;DHT22;11065;50.786;7.840;2024-02-26T11:46:27;12.10;51.40
21807;DHT22;11065;50.786;7.840;2024-02-26T11:49:00;12.10;51.40
21807;DHT22;11065;50.786;7.840;2024-02-26T11:51:33;12.10;51.20
21807;DHT22;11065;50.786;7.840;2024-02-26T11:54:01;12.10;51.10
21807;DHT22;11065;50.786;7.840;2024-02-26T11:56:34;12.10;51.10
21807;DHT22;11065;50.786;7.840;2024-02-26T11:59:04;12.10;51.20
21807;DHT22;11065;50.786;7.840;2024-02-26T12:01:44;12.10;51.30
21807;DHT22;11065;50.786;7.840;2024-02-26T12:04:19;12.20;51.60
21807;DHT22;11065;50.786;7.840;2024-02-26T12:06:51;12.20;51.60
21807;DHT22;11065;50.786;7.840;2024-02-26T12:09:34;12.30;51.70
21807;DHT22;11065;50.786;7.840;2024-02-26T12:12:05;12.30;52.00
21807;DHT22;11065;50.786;7.840;2024-02-26T12:14:36;12.50;52.00
21807;DHT22;11065;50.786;7.840;2024-02-26T12:17:05;12.60;52.00
21807;DHT22;11065;50.786;7.840;2024-02-26T12:19:35;12.70;52.00
21807;DHT22;11065;50.786;7.840;2024-02-26T12:22:08;12.80;52.10
21807;DHT22;11065;50.786;7.840;2024-02-26T12:24:38;12.90;52.00
21807;DHT22;11065;50.786;7.840;2024-02-26T12:27:07;13.00;51.90
21807;DHT22;11065;50.786;7.840;2024-02-26T12:29:35;13.10;51.80
21807;DHT22;11065;50.786;7.840;2024-02-26T12:32:04;13.10;51.70
21807;DHT22;11065;50.786;7.840;2024-02-26T12:34:34;13.20;51.60
21807;DHT22;11065;50.786;7.840;2024-02-26T12:37:03;13.20;51.50
21807;DHT22;11065;50.786;7.840;2024-02-26T12:39:31;13.20;51.30
21807;DHT22;11065;50.786;7.840;2024-02-26T12:42:00;13.30;51.20
21807;DHT22;11065;50.786;7.840;2024-02-26T12:44:31;13.20;51.00
21807;DHT22;11065;50.786;7.840;2024-02-26T12:47:02;13.30;51.00
21807;DHT22;11065;50.786;7.840;2024-02-26T12:49:31;13.20;50.80
21807;DHT22;11065;50.786;7.840;2024-02-26T12:52:00;13.20;50.80
21807;DHT22;11065;50.786;7.840;2024-02-26T12:54:29;13.10;50.70
21807;DHT22;11065;50.786;7.840;2024-02-26T12:57:00;13.10;50.70
21807;DHT22;11065;50.786;7.840;2024-02-26T12:59:31;13.10;50.70
21807;DHT22;11065;50.786;7.840;2024-02-26T13:01:59;13.00;50.60
21807;DHT22;11065;50.786;7.840;2024-02-26T13:04:31;13.00;50.70
21807;DHT22;11065;50.786;7.840;2024-02-26T13:06:59;13.00;50.70
21807;DHT22;11065;50.786;7.840;2024-02-26T13:09:33;13.00;50.70
21807;DHT22;11065;50.786;7.840;2024-02-26T13:12:04;12.90;50.70
21807;DHT22;11065;50.786;7.840;2024-02-26T13:14:33;12.90;50.80
21807;DHT22;11065;50.786;7.840;2024-02-26T13:17:03;12.80;50.80
21807;DHT22;11065;50.786;7.840;2024-02-26T13:19:31;12.90;50.90
21807;DHT22;11065;50.786;7.840;2024-02-26T13:22:04;12.90;50.90
21807;DHT22;11065;50.786;7.840;2024-02-26T13:24:33;12.80;51.10
21807;DHT22;11065;50.786;7.840;2024-02-26T13:27:01;12.90;51.60
21807;DHT22;11065;50.786;7.840;2024-02-26T13:29:30;12.90;51.10
21807;DHT22;11065;50.786;7.840;2024-02-26T13:32:00;12.90;51.20
21807;DHT22;11065;50.786;7.840;2024-02-26T13:34:29;12.90;51.20
21807;DHT22;11065;50.786;7.840;2024-02-26T13:36:57;13.10;51.30
21807;DHT22;11065;50.786;7.840;2024-02-26T13:39:26;13.00;51.30
21807;DHT22;11065;50.786;7.840;2024-02-26T13:41:55;13.10;51.40
21807;DHT22;11065;50.786;7.840;2024-02-26T13:44:23;13.20;51.30
21807;DHT22;11065;50.786;7.840;2024-02-26T13:46:52;13.30;51.20
21807;DHT22;11065;50.786;7.840;2024-02-26T13:49:21;13.30;51.10
21807;DHT22;11065;50.786;7.840;2024-02-26T13:51:50;13.40;51.00
21807;DHT22;11065;50.786;7.840;2024-02-26T13:54:18;13.40;50.90
21807;DHT22;11065;50.786;7.840;2024-02-26T13:56:46;13.40;50.80
21807;DHT22;11065;50.786;7.840;2024-02-26T13:59:15;13.40;50.70
21807;DHT22;11065;50.786;7.840;2024-02-26T14:01:43;13.50;50.70
21807;DHT22;11065;50.786;7.840;2024-02-26T14:04:11;13.40;50.60
21807;DHT22;11065;50.786;7.840;2024-02-26T14:06:41;13.40;50.70
21807;DHT22;11065;50.786;7.840;2024-02-26T14:09:09;13.40;50.60
21807;DHT22;11065;50.786;7.840;2024-02-26T14:11:40;13.40;50.60
21807;DHT22;11065;50.786;7.840;2024-02-26T14:14:09;13.40;50.60
21807;DHT22;11065;50.786;7.840;2024-02-26T14:16:37;13.40;50.60
21807;DHT22;11065;50.786;7.840;2024-02-26T14:19:05;13.40;50.60
21807;DHT22;11065;50.786;7.840;2024-02-26T14:21:33;13.40;50.60
21807;DHT22;11065;50.786;7.840;2024-02-26T14:24:03;13.40;50.70
21807;DHT22;11065;50.786;7.840;2024-02-26T14:26:31;13.40;50.70
21807;DHT22;11065;50.786;7.840;2024-02-26T14:28:59;13.40;50.70
21807;DHT22;11065;50.786;7.840;2024-02-26T14:31:27;13.40;50.80
21807;DHT22;11065;50.786;7.840;2024-02-26T14:33:55;13.40;50.70
21807;DHT22;11065;50.786;7.840;2024-02-26T14:36:24;13.40;50.70
21807;DHT22;11065;50.786;7.840;2024-02-26T14:38:52;13.40;50.70
21807;DHT22;11065;50.786;7.840;2024-02-26T14:41:21;13.50;50.70
21807;DHT22;11065;50.786;7.840;2024-02-26T14:43:49;13.40;50.70
21807;DHT22;11065;50.786;7.840;2024-02-26T14:46:17;13.40;50.70
21807;DHT22;11065;50.786;7.840;2024-02-26T14:48:45;13.40;50.70
21807;DHT22;11065;50.786;7.840;2024-02-26T14:51:13;13.50;50.80
21807;DHT22;11065;50.786;7.840;2024-02-26T14:53:41;13.50;50.80
21807;DHT22;11065;50.786;7.840;2024-02-26T14:56:09;13.40;50.70
21807;DHT22;11065;50.786;7.840;2024-02-26T14:58:38;13.40;50.60
21807;DHT22;11065;50.786;7.840;2024-02-26T15:01:06;13.50;50.70
21807;DHT22;11065;50.786;7.840;2024-02-26T15:03:34;13.40;50.70
21807;DHT22;11065;50.786;7.840;2024-02-26T15:06:03;13.40;50.70
21807;DHT22;11065;50.786;7.840;2024-02-26T15:08:31;13.40;50.60
21807;DHT22;11065;50.786;7.840;2024-02-26T15:11:01;13.40;50.60
21807;DHT22;11065;50.786;7.840;2024-02-26T15:13:30;13.40;50.50
21807;DHT22;11065;50.786;7.840;2024-02-26T15:15:59;13.40;50.50
21807;DHT22;11065;50.786;7.840;2024-02-26T15:18:27;13.40;50.50
21807;DHT22;11065;50.786;7.840;2024-02-26T15:20:55;13.50;50.60
21807;DHT22;11065;50.786;7.840;2024-02-26T15:23:23;13.40;50.50
21807;DHT22;11065;50.786;7.840;2024-02-26T15:25:51;13.40;50.50
21807;DHT22;11065;50.786;7.840;2024-02-26T15:28:19;13.40;50.50
21807;DHT22;11065;50.786;7.840;2024-02-26T15:30:47;13.40;50.50
21807;DHT22;11065;50.786;7.840;2024-02-26T15:33:16;13.40;50.40
21807;DHT22;11065;50.786;7.840;2024-02-26T15:35:45;13.40;50.20
21807;DHT22;11065;50.786;7.840;2024-02-26T15:38:13;13.50;50.20
21807;DHT22;11065;50.786;7.840;2024-02-26T15:40:41;13.50;50.10
21807;DHT22;11065;50.786;7.840;2024-02-26T15:43:11;13.40;50.00
21807;DHT22;11065;50.786;7.840;2024-02-26T15:45:41;13.40;50.00